Time;durP1;ratioP1;P1;durP2;ratioP2;P2;SDS_P1;SDS_P2;PMS_P1;PMS_P2;Temp;Humidity;BMP_temperature;BMP_pressure;BME280_temperature;BME280_humidity;BME280_pressure;Samples;Min_cycle;Max_cycle;Signal;HPM_P1;HPM_P2
2023/12/25 00:01:06;;;;;;;3.35;1.65;;;11.90;53.00;;;10.78;100.00;100123.38;4971856;28;20687;-76
2023/12/25 00:03:33;;;;;;;2.13;1.50;;;12.00;29.50;;;10.83;100.00;100149.56;4954552;28;20085;-77
2023/12/25 00:06:10;;;;;;;2.58;1.70;;;11.90;80.00;;;10.86;100.00;100161.78;4974145;28;20049;-77
2023/12/25 00:08:38;;;;;;;2.83;1.85;;;11.90;95.70;;;10.78;100.00;100138.31;4971539;28;20760;-77
2023/12/25 00:11:05;;;;;;;5.43;1.33;;;12.10;99.90;;;10.75;100.00;100138.38;4987908;28;20053;-77
2023/12/25 00:13:32;;;;;;;2.47;1.67;;;11.90;99.90;;;10.72;100.00;100149.00;4988053;28;20097;-79
2023/12/25 00:15:59;;;;;;;2.45;1.55;;;12.00;99.90;;;10.81;100.00;100150.50;4994706;28;20053;-77
2023/12/25 00:18:26;;;;;;;4.53;1.63;;;11.80;99.90;;;10.91;100.00;100136.19;4994349;28;20054;-76
2023/12/25 00:20:54;;;;;;;6.30;1.80;;;11.80;99.90;;;10.86;100.00;100157.34;4977352;28;20069;-77
2023/12/25 00:23:21;;;;;;;2.45;2.00;;;11.80;1.00;;;10.75;100.00;100130.47;4990754;28;20080;-75
2023/12/25 00:25:48;;;;;;;5.15;1.70;;;11.80;1.00;;;10.66;100.00;100112.34;4967055;28;20093;-77
2023/12/25 00:28:15;;;;;;;2.55;1.77;;;11.70;1.00;;;10.74;100.00;100131.38;4972642;28;20057;-77
2023/12/25 00:30:42;;;;;;;4.43;1.70;;;11.70;58.00;;;10.63;100.00;100132.56;4964526;28;20119;-76
2023/12/25 00:33:09;;;;;;;3.65;1.83;;;11.70;99.90;;;10.48;100.00;100118.06;4968734;28;20046;-76
2023/12/25 00:35:36;;;;;;;1.95;1.73;;;11.70;99.90;;;10.54;100.00;100135.44;4964371;28;20046;-76
2023/12/25 00:38:04;;;;;;;3.50;2.13;;;11.70;53.80;;;10.43;100.00;100130.50;4966448;28;20042;-76
2023/12/25 00:40:31;;;;;;;2.95;1.75;;;11.80;99.90;;;10.43;100.00;100126.97;4982139;28;20037;-75
2023/12/25 00:42:58;;;;;;;2.65;1.50;;;11.60;1.00;;;10.60;100.00;100177.34;4967712;28;20041;-75
2023/12/25 00:45:25;;;;;;;3.97;2.10;;;12.10;25.00;;;10.50;100.00;100181.16;5000030;28;20489;-74
2023/12/25 00:47:52;;;;;;;5.72;1.48;;;11.50;50.90;;;10.53;100.00;100141.63;4981178;28;20559;-75
2023/12/25 00:50:20;;;;;;;4.63;1.45;;;11.50;99.90;;;10.43;100.00;100133.13;4968531;28;20042;-75
2023/12/25 00:52:47;;;;;;;3.10;1.63;;;11.90;99.90;;;10.36;100.00;100128.88;4966408;28;20046;-75
2023/12/25 00:55:14;;;;;;;2.08;1.48;;;11.60;99.90;;;10.45;100.00;100118.16;4963181;28;20054;-75
2023/12/25 00:57:41;;;;;;;3.47;1.63;;;11.50;99.90;;;10.45;100.00;100181.28;4966557;28;20111;-75
2023/12/25 01:00:09;;;;;;;6.00;1.77;;;11.40;99.90;;;10.36;100.00;100134.13;4975810;28;20542;-75
2023/12/25 01:02:37;;;;;;;3.15;1.75;;;11.50;99.90;;;10.33;100.00;100135.09;4963485;28;20053;-75
2023/12/25 01:05:05;;;;;;;3.53;1.75;;;11.50;99.90;;;10.30;100.00;100115.91;4974167;28;20068;-75
2023/12/25 01:07:32;;;;;;;2.70;1.45;;;11.50;99.90;;;10.54;100.00;100145.97;4983552;28;20125;-75
2023/12/25 01:10:00;;;;;;;4.32;1.67;;;11.50;99.90;;;10.40;100.00;100134.94;4982002;28;20042;-76
2023/12/25 01:12:27;;;;;;;2.33;1.40;;;11.50;99.90;;;10.30;100.00;100157.97;4981597;28;20394;-75
2023/12/25 01:14:54;;;;;;;3.28;1.50;;;11.40;1.00;;;10.30;100.00;100129.94;4964883;28;20523;-75
2023/12/25 01:17:22;;;;;;;3.28;1.40;;;11.40;1.00;;;10.32;100.00;100141.28;4983725;28;20046;-75
2023/12/25 01:19:49;;;;;;;2.03;1.63;;;11.40;1.00;;;10.07;100.00;100106.88;4970299;28;20684;-75
2023/12/25 01:22:16;;;;;;;4.72;1.42;;;11.30;1.00;;;10.22;100.00;100131.88;4973790;28;20054;-76
2023/12/25 01:24:43;;;;;;;3.13;1.60;;;11.30;1.50;;;10.16;100.00;100109.25;4980207;28;20074;-76
2023/12/25 01:27:10;;;;;;;4.85;1.90;;;11.30;1.00;;;10.05;100.00;100133.19;4967462;28;20046;-76
2023/12/25 01:29:40;;;;;;;5.35;1.83;;;11.30;99.90;;;10.26;100.00;100158.97;4980911;28;20073;-75
2023/12/25 01:32:07;;;;;;;3.65;1.83;;;11.30;1.00;;;10.32;100.00;100171.94;4961948;28;20524;-75
2023/12/25 01:34:34;;;;;;;5.95;1.60;;;11.30;31.80;;;10.12;100.00;100144.41;4979551;28;20053;-76
2023/12/25 01:37:04;;;;;;;4.57;1.73;;;11.40;51.80;;;10.13;100.00;100143.50;4965323;28;20049;-76
2023/12/25 01:39:33;;;;;;;2.15;1.60;;;11.30;58.40;;;9.82;100.00;100106.63;4971005;28;20073;-76
2023/12/25 01:42:01;;;;;;;6.93;1.80;;;11.20;99.90;;;10.02;100.00;100146.41;4972448;28;20053;-76
2023/12/25 01:44:28;;;;;;;3.40;1.73;;;11.90;1.00;;;10.16;100.00;100158.34;4963026;28;20046;-76
2023/12/25 01:46:55;;;;;;;2.58;1.60;;;11.20;99.90;;;10.06;100.00;100157.69;4984499;28;20045;-76
2023/12/25 01:49:23;;;;;;;3.10;1.50;;;11.20;2.40;;;10.08;100.00;100175.16;4994321;28;20064;-76
2023/12/25 01:51:51;;;;;;;3.53;1.83;;;11.50;95.00;;;10.10;100.00;100169.88;4990456;28;20042;-75
2023/12/25 01:54:18;;;;;;;4.22;1.85;;;11.20;53.50;;;10.08;100.00;100177.78;4991000;28;20038;-76
2023/12/25 01:56:46;;;;;;;2.10;1.48;;;11.10;99.90;;;9.96;100.00;100174.63;4990251;28;20038;-76
2023/12/25 01:59:13;;;;;;;4.80;1.40;;;11.10;99.90;;;10.00;100.00;100173.63;4966605;28;20065;-76
2023/12/25 02:01:40;;;;;;;4.40;1.50;;;11.20;99.90;;;9.88;100.00;100170.41;4970509;28;20042;-76
2023/12/25 02:04:07;;;;;;;2.75;1.38;;;11.10;1.00;;;10.01;100.00;100192.00;4991573;28;20088;-76
2023/12/25 02:06:35;;;;;;;1.67;1.25;;;11.10;99.90;;;9.84;100.00;100149.50;4999965;28;20054;-76
2023/12/25 02:09:03;;;;;;;2.45;1.77;;;11.00;99.90;;;9.95;100.00;100189.50;4991398;28;20123;-76
2023/12/25 02:11:30;;;;;;;3.08;1.45;;;11.00;1.00;;;9.81;100.00;100155.69;4948223;28;20180;-76
2023/12/25 02:13:59;;;;;;;3.40;1.77;;;11.00;1.00;;;9.85;100.00;100207.25;4970996;28;20133;-76
2023/12/25 02:16:27;;;;;;;2.55;1.73;;;10.80;99.90;;;9.90;100.00;100176.47;4979031;28;20065;-75
2023/12/25 02:18:55;;;;;;;3.83;1.85;;;10.90;1.00;;;9.88;100.00;100196.69;4945823;28;20133;-76
2023/12/25 02:21:22;;;;;;;2.45;1.50;;;10.90;1.00;;;9.86;100.00;100195.00;4972554;28;20050;-76
2023/12/25 02:23:58;;;;;;;4.93;1.95;;;10.90;1.00;;;9.61;100.00;100151.78;4994379;28;20057;-76
2023/12/25 02:26:26;;;;;;;3.72;1.15;;;10.90;1.00;;;9.92;100.00;100169.44;4986668;28;20046;-76
2023/12/25 02:28:53;;;;;;;3.70;1.90;;;11.00;99.90;;;9.88;100.00;100180.91;4983437;28;20070;-76
2023/12/25 02:31:24;;;;;;;3.15;1.80;;;11.00;1.00;;;9.75;100.00;100137.44;5004790;28;20053;-76
2023/12/25 02:33:51;;;;;;;3.50;1.30;;;10.90;1.00;;;9.87;100.00;100154.69;4960293;28;20034;-77
2023/12/25 02:36:18;;;;;;;1.52;1.20;;;11.00;1.00;;;9.64;100.00;100121.94;4981312;28;20050;-76
2023/12/25 02:38:45;;;;;;;3.75;1.77;;;10.90;29.10;;;9.58;100.00;100116.84;4970650;28;20117;-77
2023/12/25 02:41:12;;;;;;;3.95;1.17;;;10.90;99.90;;;9.69;100.00;100138.47;4969488;28;20048;-75
2023/12/25 02:43:39;;;;;;;2.60;1.40;;;10.90;99.90;;;9.65;100.00;100163.94;4965173;28;20133;-76
2023/12/25 02:46:06;;;;;;;4.20;1.60;;;10.80;99.90;;;9.82;100.00;100180.19;4977265;28;20446;-76
2023/12/25 02:48:33;;;;;;;2.63;1.50;;;10.80;99.90;;;9.78;100.00;100187.31;5000655;28;20080;-76
2023/12/25 02:51:00;;;;;;;3.60;1.20;;;10.80;99.90;;;9.60;100.00;100144.81;5002891;28;20386;-75
2023/12/25 02:53:28;;;;;;;1.38;1.27;;;10.90;99.90;;;9.68;100.00;100178.78;4962876;28;20164;-76
2023/12/25 02:55:55;;;;;;;1.73;1.45;;;10.90;99.90;;;9.65;100.00;100148.19;4972515;28;20042;-75
2023/12/25 02:58:22;;;;;;;1.73;1.30;;;10.90;99.90;;;9.73;100.00;100168.13;4988957;28;20149;-75
2023/12/25 03:00:50;;;;;;;1.83;1.65;;;10.80;1.00;;;9.69;100.00;100155.97;5007129;28;20046;-75
2023/12/25 03:03:17;;;;;;;2.47;1.45;;;10.80;1.00;;;9.76;100.00;100168.09;4969927;28;20457;-76
2023/12/25 03:05:44;;;;;;;1.73;1.42;;;10.90;1.00;;;9.67;100.00;100155.16;4980773;28;20052;-75
2023/12/25 03:08:11;;;;;;;3.40;1.40;;;10.80;1.00;;;9.69;100.00;100161.25;4969969;28;20121;-75
2023/12/25 03:10:38;;;;;;;1.92;1.30;;;10.70;1.00;;;9.67;100.00;100160.41;4980215;28;20132;-77
2023/12/25 03:13:05;;;;;;;1.33;1.23;;;10.70;1.00;;;9.68;100.00;100191.91;4990231;28;20041;-76
2023/12/25 03:15:34;;;;;;;3.15;1.40;;;10.80;1.00;;;9.52;100.00;100162.50;5001729;28;20049;-75
2023/12/25 03:18:01;;;;;;;3.05;1.40;;;10.80;1.00;;;9.49;100.00;100146.81;4972886;28;20520;-75
2023/12/25 03:20:29;;;;;;;2.70;1.42;;;11.00;7.80;;;9.52;100.00;100154.63;5003230;28;20696;-75
2023/12/25 03:22:57;;;;;;;1.63;1.38;;;10.70;1.00;;;9.48;100.00;100130.19;4967255;28;20062;-75
2023/12/25 03:25:24;;;;;;;1.75;1.25;;;10.70;1.00;;;9.38;100.00;100140.94;4994919;28;20057;-75
2023/12/25 03:27:51;;;;;;;5.22;1.50;;;10.70;1.00;;;9.55;100.00;100162.41;4978478;28;20100;-76
2023/12/25 03:30:19;;;;;;;1.42;1.30;;;10.70;1.00;;;9.67;100.00;100198.03;4987672;28;20045;-76
2023/12/25 03:32:46;;;;;;;3.72;1.83;;;10.80;1.00;;;9.67;100.00;100182.28;4988216;28;20069;-75
2023/12/25 03:35:13;;;;;;;2.35;1.40;;;10.80;1.00;;;9.55;100.00;100198.34;4968596;28;20053;-76
2023/12/25 03:37:42;;;;;;;2.35;1.55;;;10.70;1.00;;;9.64;100.00;100190.22;5004330;28;20065;-76
2023/12/25 03:40:09;;;;;;;2.45;1.20;;;11.50;1.00;;;9.51;100.00;100166.88;4988280;28;20057;-76
2023/12/25 03:42:36;;;;;;;2.20;1.08;;;10.70;4.40;;;9.65;100.00;100171.81;4971186;28;20046;-75
2023/12/25 03:45:04;;;;;;;3.08;1.30;;;10.70;1.00;;;9.65;100.00;100178.81;4987760;28;20064;-76
2023/12/25 03:47:31;;;;;;;2.05;1.58;;;10.70;1.00;;;9.56;100.00;100185.16;4970190;28;20057;-76
2023/12/25 03:49:58;;;;;;;3.85;1.20;;;10.70;1.00;;;9.55;100.00;100164.19;4969404;28;20042;-76
2023/12/25 03:52:25;;;;;;;3.22;1.92;;;10.70;1.00;;;9.64;100.00;100191.13;4971925;28;20061;-76
2023/12/25 03:54:52;;;;;;;3.05;1.40;;;10.70;1.00;;;9.54;100.00;100165.09;4968518;28;20038;-76
2023/12/25 03:57:19;;;;;;;3.75;1.27;;;10.80;1.00;;;9.50;100.00;100177.44;4984749;28;20073;-77
2023/12/25 03:59:49;;;;;;;1.83;1.38;;;10.80;1.00;;;9.47;100.00;100174.88;4971242;28;20141;-77
2023/12/25 04:02:16;;;;;;;;;;;10.70;1.00;;;9.57;100.00;100181.63;4972130;28;20042;-77
2023/12/25 04:04:43;;;;;;;1.02;1.02;;;10.90;1.00;;;9.66;100.00;100191.06;4987789;28;19925;-76
2023/12/25 04:07:10;;;;;;;2.10;1.38;;;10.80;1.00;;;9.52;100.00;100162.50;4968343;28;20456;-77
2023/12/25 04:09:38;;;;;;;3.88;1.65;;;10.80;1.00;;;9.58;100.00;100162.34;4986886;28;20093;-75
2023/12/25 04:12:05;;;;;;;4.13;1.65;;;10.80;1.00;;;9.68;100.00;100183.16;4971939;28;20042;-75
2023/12/25 04:14:36;;;;;;;3.97;1.88;;;10.70;1.00;;;9.70;100.00;100165.59;4997621;28;20049;-77
2023/12/25 04:17:03;;;;;;;2.90;1.30;;;9.80;1.00;;;9.68;100.00;100188.41;4971974;28;20567;-76
2023/12/25 04:19:32;;;;;;;4.25;1.77;;;10.70;1.00;;;9.62;100.00;100160.50;4987670;28;20050;-75
2023/12/25 04:21:59;;;;;;;2.80;1.60;;;10.70;1.00;;;9.69;100.00;100170.00;4966652;28;20050;-76
2023/12/25 04:24:26;;;;;;;1.52;1.30;;;10.70;1.00;;;9.50;100.00;100161.66;5002761;28;20045;-76
2023/12/25 04:26:53;;;;;;;3.08;1.40;;;10.70;1.00;;;9.62;100.00;100171.03;4951800;28;20077;-76
2023/12/25 04:29:23;;;;;;;3.65;1.50;;;10.70;1.00;;;9.34;100.00;100132.25;4968782;28;20161;-76
2023/12/25 04:31:50;;;;;;;1.75;1.30;;;10.70;33.80;;;9.39;100.00;100179.41;4987515;28;20521;-76
2023/12/25 04:34:18;;;;;;;3.75;1.40;;;10.70;43.50;;;9.47;100.00;100151.25;5003610;28;20049;-76
2023/12/25 04:36:45;;;;;;;3.17;1.48;;;10.70;70.40;;;9.55;100.00;100183.44;4968100;28;20072;-76
2023/12/25 04:39:13;;;;;;;1.23;1.08;;;10.70;92.40;;;9.63;100.00;100186.75;4971824;28;20117;-75
2023/12/25 04:41:40;;;;;;;3.10;1.40;;;10.70;82.70;;;9.44;100.00;100177.56;4952057;28;20035;-74
2023/12/25 04:44:07;;;;;;;2.90;1.40;;;10.70;99.90;;;9.55;100.00;100185.22;4958504;28;20763;-73
2023/12/25 04:46:35;;;;;;;4.03;1.33;;;10.70;99.90;;;9.67;100.00;100190.16;4961883;28;20051;-73
2023/12/25 04:49:06;;;;;;;3.92;1.60;;;10.80;95.40;;;9.52;100.00;100173.00;4991723;28;20120;-74
2023/12/25 04:51:33;;;;;;;1.60;1.42;;;10.70;93.10;;;9.48;100.00;100180.06;4967846;28;20058;-73
2023/12/25 04:54:00;;;;;;;2.20;1.20;;;10.60;99.90;;;9.47;100.00;100167.84;4964909;28;20580;-74
2023/12/25 04:56:27;;;;;;;2.85;1.40;;;10.70;99.90;;;9.47;100.00;100169.63;4969952;28;20195;-74
2023/12/25 04:58:54;;;;;;;3.13;1.33;;;10.70;97.10;;;9.58;100.00;100177.25;4986717;28;20065;-74
2023/12/25 05:01:21;;;;;;;2.95;1.60;;;10.80;99.90;;;9.58;100.00;100180.72;4967722;28;20476;-74
2023/12/25 05:03:48;;;;;;;2.70;1.58;;;10.70;99.90;;;9.53;100.00;100177.34;4951683;28;20079;-74
2023/12/25 05:06:15;;;;;;;3.00;2.45;;;10.70;99.90;;;9.71;100.00;100178.69;4982176;28;20050;-74
2023/12/25 05:08:43;;;;;;;3.55;1.45;;;10.80;99.90;;;9.68;100.00;100172.66;4986687;28;20054;-74
2023/12/25 05:11:10;;;;;;;1.23;1.10;;;10.70;99.90;;;9.69;100.00;100184.88;4971179;28;20120;-74
2023/12/25 05:13:37;;;;;;;3.10;1.20;;;10.70;99.90;;;9.58;100.00;100174.63;4990611;28;20077;-74
2023/12/25 05:16:04;;;;;;;5.07;1.73;;;10.70;99.90;;;9.68;100.00;100175.28;4990557;28;20053;-74
2023/12/25 05:18:31;;;;;;;1.52;1.17;;;10.70;99.90;;;9.57;100.00;100163.25;5008268;28;20048;-74
2023/12/25 05:20:59;;;;;;;1.88;1.45;;;10.70;99.90;;;9.63;100.00;100167.50;4972521;28;20042;-74
2023/12/25 05:23:26;;;;;;;1.45;1.27;;;10.70;99.90;;;9.58;100.00;100183.34;4974611;28;20046;-74
2023/12/25 05:25:53;;;;;;;2.33;1.63;;;10.70;99.90;;;9.60;100.00;100167.56;5008141;28;20504;-74
2023/12/25 05:28:20;;;;;;;2.15;1.50;;;10.80;99.90;;;9.54;100.00;100170.34;4990712;28;20045;-73
2023/12/25 05:30:47;;;;;;;4.72;1.90;;;10.70;99.90;;;9.50;100.00;100159.03;4987171;28;20048;-74
2023/12/25 05:33:14;;;;;;;2.95;1.30;;;10.70;81.30;;;9.49;100.00;100183.59;5002968;28;20046;-74
2023/12/25 05:35:41;;;;;;;1.90;1.30;;;10.70;84.80;;;9.58;100.00;100185.13;4973992;28;20049;-74
2023/12/25 05:38:08;;;;;;;3.47;1.40;;;10.70;68.60;;;9.54;100.00;100159.84;4974734;28;20046;-74
2023/12/25 05:40:35;;;;;;;1.75;1.25;;;10.70;41.40;;;9.58;100.00;100166.75;4990488;28;20038;-74
2023/12/25 05:43:03;;;;;;;1.40;1.20;;;10.70;56.30;;;9.62;100.00;100171.91;4990380;28;20504;-74
2023/12/25 05:45:30;;;;;;;1.20;1.10;;;10.70;1.00;;;9.50;100.00;100157.25;4974189;28;20041;-74
2023/12/25 05:47:57;;;;;;;1.50;1.33;;;10.70;1.00;;;9.45;100.00;100145.16;5005294;28;20046;-74
2023/12/25 05:50:24;;;;;;;2.25;1.65;;;10.70;1.00;;;9.57;100.00;100176.38;4990569;28;20082;-74
2023/12/25 05:52:51;;;;;;;1.83;1.63;;;10.70;1.00;;;9.66;100.00;100191.06;4990752;28;20040;-74
2023/12/25 05:55:18;;;;;;;2.72;1.50;;;10.80;1.00;;;9.50;100.00;100188.78;4974395;28;20050;-74
2023/12/25 05:57:45;;;;;;;2.13;1.45;;;10.70;1.00;;;9.65;100.00;100176.19;4962273;28;20081;-74
2023/12/25 06:00:14;;;;;;;4.13;1.40;;;10.70;1.00;;;9.57;100.00;100171.13;4970324;28;20044;-74
2023/12/25 06:02:42;;;;;;;3.00;1.45;;;10.60;1.00;;;9.48;100.00;100155.59;4974210;28;20501;-74
2023/12/25 06:05:09;;;;;;;3.75;1.65;;;10.60;1.00;;;9.46;100.00;100188.91;4973801;28;20050;-74
2023/12/25 06:07:36;;;;;;;3.00;1.42;;;10.60;1.00;;;9.55;100.00;100172.06;4970975;28;20064;-74
2023/12/25 06:10:04;;;;;;;2.90;1.60;;;10.60;1.00;;;9.60;100.00;100184.22;5002495;28;20052;-74
2023/12/25 06:12:31;;;;;;;3.67;1.45;;;10.60;1.00;;;9.55;100.00;100162.41;5007956;28;20467;-74
2023/12/25 06:14:58;;;;;;;1.67;1.30;;;10.60;1.00;;;9.61;100.00;100216.56;5007690;28;20039;-74
2023/12/25 06:17:25;;;;;;;3.53;1.48;;;10.70;1.00;;;9.54;100.00;100165.09;5003428;28;20050;-75
2023/12/25 06:19:52;;;;;;;2.40;1.70;;;10.70;1.00;;;9.56;100.00;100169.41;4970437;28;20104;-74
2023/12/25 06:22:19;;;;;;;2.90;1.20;;;10.70;99.90;;;9.71;100.00;100190.97;4980812;28;20042;-75
2023/12/25 06:24:47;;;;;;;3.97;1.60;;;10.70;99.90;;;9.66;100.00;100180.56;4973368;28;20049;-74
2023/12/25 06:27:14;;;;;;;5.55;1.50;;;10.70;99.90;;;9.63;100.00;100197.25;4990012;28;20148;-75
2023/12/25 06:29:41;;;;;;;3.00;1.40;;;10.70;99.90;;;9.33;100.00;100149.78;5005886;28;20497;-75
2023/12/25 06:32:08;;;;;;;3.67;1.40;;;10.70;99.90;;;9.57;100.00;100176.38;5007340;28;20045;-74
2023/12/25 06:34:35;;;;;;;3.25;1.50;;;10.70;99.90;;;9.63;100.00;100178.88;4973398;28;20503;-74
2023/12/25 06:37:03;;;;;;;3.33;1.70;;;10.80;99.90;;;9.62;100.00;100174.53;4989499;28;20046;-75
2023/12/25 06:39:30;;;;;;;3.67;1.70;;;10.80;99.90;;;9.60;100.00;100165.81;5005635;28;20046;-74
2023/12/25 06:41:57;;;;;;;3.08;1.55;;;11.40;99.90;;;9.64;100.00;100191.13;4966796;28;20041;-74
2023/12/25 06:44:25;;;;;;;1.73;1.60;;;10.70;99.90;;;9.61;100.00;100204.31;4970661;28;20062;-74
2023/12/25 06:46:54;;;;;;;3.65;1.73;;;10.70;99.90;;;9.64;100.00;100195.50;4989652;28;20041;-74
2023/12/25 06:49:21;;;;;;;1.85;1.50;;;10.70;99.90;;;9.59;100.00;100192.97;4973737;28;20049;-74
2023/12/25 06:51:48;;;;;;;2.65;1.52;;;10.70;99.90;;;9.62;100.00;100199.91;4957443;28;20132;-74
2023/12/25 06:54:15;;;;;;;2.80;1.60;;;10.70;48.70;;;9.65;100.00;100205.09;4990380;28;20041;-74
2023/12/25 06:56:42;;;;;;;8.70;7.78;;;10.70;1.00;;;9.54;100.00;100171.19;4974090;28;20042;-74
2023/12/25 06:59:10;;;;;;;4.75;1.77;;;10.80;1.00;;;9.57;100.00;100207.03;4984418;28;20046;-74
2023/12/25 07:01:40;;;;;;;2.42;1.50;;;10.80;1.00;;;9.62;100.00;100206.06;4965518;28;20406;-74
2023/12/25 07:04:09;;;;;;;3.70;1.50;;;10.80;1.00;;;9.51;100.00;100194.91;4989204;28;20814;-74
2023/12/25 07:06:36;;;;;;;5.53;1.90;;;10.80;1.00;;;9.63;100.00;100226.16;4990057;28;20104;-74
2023/12/25 07:09:03;;;;;;;2.90;1.55;;;10.80;99.90;;;9.63;100.00;100244.56;4990918;28;20046;-76
2023/12/25 07:11:31;;;;;;;3.13;1.38;;;10.70;99.90;;;9.68;100.00;100233.06;4974580;28;20046;-75
2023/12/25 07:13:59;;;;;;;2.08;1.50;;;10.70;99.90;;;9.51;100.00;100198.38;4989940;28;20184;-75
2023/12/25 07:16:26;;;;;;;5.22;1.45;;;10.70;99.90;;;9.46;100.00;100187.13;4969168;28;20049;-75
2023/12/25 07:18:54;;;;;;;3.78;1.80;;;10.70;79.00;;;9.47;100.00;100196.72;5006607;28;20056;-75
2023/12/25 07:21:21;;;;;;;2.65;1.55;;;10.80;99.90;;;9.45;100.00;100202.94;4972769;28;20569;-75
2023/12/25 07:23:52;;;;;;;4.95;1.60;;;10.70;93.30;;;9.46;100.00;100244.91;4987079;28;20046;-76
2023/12/25 07:26:19;;;;;;;3.33;1.98;;;10.70;99.90;;;9.48;100.00;100237.84;4969395;28;20060;-76
2023/12/25 07:28:47;;;;;;;3.25;1.95;;;10.60;59.60;;;9.35;100.00;100239.00;4981150;28;20041;-76
2023/12/25 07:31:15;;;;;;;3.47;2.00;;;10.70;99.90;;;9.53;100.00;100245.63;4986908;28;20133;-76
2023/12/25 07:33:43;;;;;;;2.08;1.42;;;10.70;99.90;;;9.66;100.00;100267.25;4987866;28;20068;-75
2023/12/25 07:36:10;;;;;;;6.03;1.98;;;10.70;99.90;;;9.53;100.00;100264.03;4971199;28;20049;-76
2023/12/25 07:38:38;;;;;;;3.95;1.88;;;10.70;1.00;;;9.53;100.00;100253.53;4988564;28;20132;-75
2023/12/25 07:41:10;;;;;;;2.85;1.73;;;10.70;1.00;;;9.60;100.00;100255.13;4985341;28;20102;-76
2023/12/25 07:43:38;;;;;;;3.10;1.85;;;11.30;99.90;;;9.58;100.00;100245.56;4997068;28;20139;-75
2023/12/25 07:46:08;;;;;;;4.88;2.10;;;10.80;99.90;;;9.68;100.00;100294.38;4970539;28;20034;-74
2023/12/25 07:48:39;;;;;;;5.72;1.80;;;10.70;1.00;;;9.72;100.00;100284.63;4988107;28;20120;-74
2023/12/25 07:51:09;;;;;;;4.05;1.98;;;11.30;1.00;;;9.66;100.00;100262.00;4984694;28;20124;-74
2023/12/25 07:53:36;;;;;;;2.95;1.58;;;10.80;1.00;;;9.75;100.00;100274.94;4987578;28;20046;-74
2023/12/25 07:56:08;;;;;;;2.65;1.70;;;10.80;1.00;;;9.72;100.00;100282.91;4984279;28;20038;-74
2023/12/25 07:58:35;;;;;;;4.75;1.80;;;10.80;99.90;;;9.70;100.00;100289.06;4988317;28;20507;-75
2023/12/25 08:01:06;;;;;;;1.75;1.38;;;10.80;32.80;;;9.69;100.00;100282.97;5004655;28;20719;-74
2023/12/25 08:03:33;;;;;;;;;;;10.70;21.80;;;9.65;100.00;100289.16;5006291;28;20045;-75
2023/12/25 08:06:00;;;;;;;3.50;1.90;;;10.70;99.90;;;9.66;100.00;100277.75;4987916;28;20288;-74
2023/12/25 08:08:27;;;;;;;2.97;1.58;;;10.70;99.90;;;9.66;100.00;100290.88;5004401;28;20056;-74
2023/12/25 08:10:54;;;;;;;2.05;1.45;;;10.70;99.90;;;9.51;100.00;100273.72;4988014;28;20111;-75
2023/12/25 08:13:21;;;;;;;2.95;1.63;;;10.70;99.90;;;9.68;100.00;100294.38;4968337;28;20043;-74
2023/12/25 08:15:48;;;;;;;4.85;2.08;;;10.70;99.90;;;9.17;100.00;100206.16;4983828;28;20107;-78
2023/12/25 08:18:15;;;;;;;5.68;2.03;;;11.00;1.00;;;9.72;100.00;100306.53;4974259;28;20049;-78
2023/12/25 08:20:42;;;;;;;2.30;2.00;;;10.80;1.00;;;9.50;100.00;100277.22;4966140;28;20149;-76
2023/12/25 08:23:09;;;;;;;3.80;2.13;;;10.70;1.00;;;9.54;100.00;100284.13;4968228;28;20096;-77
2023/12/25 08:25:37;;;;;;;5.50;1.63;;;10.90;1.00;;;9.62;100.00;100305.88;4985991;28;20554;-76
2023/12/25 08:28:04;;;;;;;10.40;1.85;;;10.70;1.00;;;9.59;100.00;100302.44;4955686;28;20607;-76
2023/12/25 08:30:32;;;;;;;5.32;1.80;;;10.70;1.00;;;9.28;100.00;100237.44;4969663;28;20580;-77
2023/12/25 08:32:59;;;;;;;3.83;2.00;;;10.70;1.00;;;9.63;100.00;100297.09;4987916;28;20037;-77
2023/12/25 08:35:26;;;;;;;2.45;1.60;;;10.70;1.00;;;9.51;100.00;100295.56;4988057;28;20060;-77
2023/12/25 08:37:53;;;;;;;3.08;1.75;;;10.60;99.90;;;9.47;100.00;100304.41;5006535;28;20038;-77
2023/12/25 08:40:21;;;;;;;3.22;1.63;;;10.50;1.00;;;9.10;100.00;100270.16;4988832;28;20688;-78
2023/12/25 08:42:48;;;;;;;3.75;1.85;;;10.80;99.90;;;9.31;100.00;100326.63;4973056;28;20092;-77
2023/12/25 08:45:15;;;;;;;3.60;2.08;;;10.40;1.00;;;9.17;100.00;100304.13;4969809;28;20054;-77
2023/12/25 08:47:42;;;;;;;2.65;1.50;;;10.30;1.00;;;8.95;100.00;100280.03;4972273;28;20668;-77
2023/12/25 08:50:10;;;;;;;4.53;1.77;;;10.10;52.80;;;8.95;100.00;100322.03;4966959;28;20057;-77
2023/12/25 08:52:37;;;;;;;7.45;2.58;;;10.10;99.90;;;8.87;100.00;100316.06;4988131;28;20046;-77
2023/12/25 08:55:04;;;;;;;4.18;1.70;;;10.10;99.90;;;8.87;100.00;100331.81;4956727;28;20500;-76
2023/12/25 08:57:35;;;;;;;3.30;2.35;;;10.00;99.90;;;8.76;100.00;100342.50;4991891;28;20065;-76
2023/12/25 09:00:06;;;;;;;5.05;3.85;;;9.90;99.90;;;8.57;100.00;100315.69;4985054;28;20112;-76
2023/12/25 09:02:33;;;;;;;3.63;2.20;;;9.90;99.90;;;8.69;100.00;100331.25;4985464;28;20124;-76
2023/12/25 09:05:00;;;;;;;2.78;2.00;;;9.90;99.90;;;8.67;100.00;100346.16;4952023;28;20061;-77
2023/12/25 09:07:32;;;;;;;2.88;2.40;;;10.10;99.90;;;8.62;100.00;100343.59;4984159;28;20425;-77
2023/12/25 09:09:59;;;;;;;4.90;1.80;;;9.90;99.90;;;8.70;100.00;100356.56;4955319;28;20056;-76
2023/12/25 09:12:29;;;;;;;2.83;1.75;;;9.80;36.90;;;8.71;100.00;100342.56;4986954;28;20485;-77
2023/12/25 09:14:56;;;;;;;2.22;1.60;;;9.80;54.90;;;8.64;100.00;100344.44;4983157;28;20534;-76
2023/12/25 09:17:24;;;;;;;4.05;1.63;;;11.10;99.90;;;8.73;100.00;100356.53;4955987;28;20044;-76
2023/12/25 09:19:51;;;;;;;3.53;1.90;;;9.90;99.90;;;8.64;100.00;100323.44;4967776;28;20141;-77
2023/12/25 09:22:20;;;;;;;2.30;1.85;;;9.90;99.90;;;8.70;100.00;100358.31;4983651;28;20057;-77
2023/12/25 09:24:47;;;;;;;4.10;2.20;;;9.80;99.90;;;8.57;100.00;100341.94;4947141;28;20068;-76
2023/12/25 09:27:15;;;;;;;3.65;2.10;;;9.80;1.00;;;8.41;100.00;100326.41;4967052;28;20393;-77
2023/12/25 09:29:43;;;;;;;2.78;2.30;;;9.70;1.00;;;8.51;100.00;100359.50;4977447;28;20056;-78
2023/12/25 09:32:13;;;;;;;2.17;1.98;;;10.30;1.00;;;8.07;100.00;100314.66;4972279;28;20052;-79
2023/12/25 09:34:40;;;;;;;1.83;1.50;;;9.60;1.00;;;8.07;100.00;100287.59;4972758;28;20056;-79
2023/12/25 09:37:25;;;;;;;2.28;1.80;;;9.80;1.00;;;8.57;100.00;100378.63;4967028;28;20125;-77
2023/12/25 09:39:53;;;;;;;2.67;2.00;;;9.70;1.00;;;8.51;100.00;100369.13;4995481;28;20042;-76
2023/12/25 09:42:21;;;;;;;2.78;2.08;;;9.60;1.00;;;8.58;100.00;100373.34;4986697;28;20108;-76
2023/12/25 09:44:54;;;;;;;4.85;1.83;;;9.70;1.00;;;8.47;100.00;100364.78;4998879;28;20044;-76
2023/12/25 09:47:23;;;;;;;3.97;2.75;;;9.30;1.00;;;8.47;100.00;100359.53;4965380;28;20123;-76
2023/12/25 09:49:51;;;;;;;3.22;1.50;;;9.70;1.00;;;8.50;100.00;100391.81;4984603;28;20480;-76
2023/12/25 09:52:23;;;;;;;2.38;2.15;;;9.70;1.00;;;8.53;100.00;100390.06;4981515;28;20050;-75
2023/12/25 09:54:51;;;;;;;4.78;2.58;;;9.60;1.00;;;8.25;100.00;100354.59;4980698;28;20574;-75
2023/12/25 09:57:19;;;;;;;2.03;1.67;;;9.70;1.00;;;8.46;100.00;100384.88;4986571;28;20193;-75
2023/12/25 09:59:50;;;;;;;2.58;1.85;;;9.70;1.00;;;8.53;100.00;100393.56;4972778;28;20129;-75
2023/12/25 10:02:19;;;;;;;4.75;2.20;;;9.60;1.00;;;8.27;100.00;100358.06;5007641;28;20492;-75
2023/12/25 10:04:49;;;;;;;2.75;1.80;;;9.70;1.00;;;8.48;100.00;100380.47;4975368;28;20045;-76
2023/12/25 10:07:20;;;;;;;1.88;1.63;;;9.60;1.00;;;8.38;100.00;100381.50;4984006;28;20109;-75
2023/12/25 10:09:49;;;;;;;2.72;1.90;;;9.60;1.00;;;8.42;100.00;100370.09;4985271;28;20120;-75
2023/12/25 10:12:16;;;;;;;4.30;1.77;;;9.60;1.00;;;8.54;100.00;100402.31;4971897;28;20054;-75
2023/12/25 10:14:44;;;;;;;2.25;1.75;;;9.60;1.00;;;8.45;100.00;100380.53;4964020;28;20057;-76
2023/12/25 10:17:12;;;;;;;2.40;1.77;;;9.60;1.00;;;8.40;100.00;100376.22;4934026;28;20051;-77